Blue Oak Ranch Reserve, California Weather observations

Data are for 10 minute period ending at time listed.
 Day   Time   Solar   Ave.   Ave.  Ave.  Vector  Max.   Baro.   Total    
  of    of     Rad.   Air    Rel.  Wind   Wind   Wind  Press.  Precip.   
Year   Day            Temp.  Hum.  Speed  Dir.   Gust                    
2019   (PST)  Kw/m2    F      %     mph   deg.    mph    mb.     in.     
-------------------------------------------------------------------------
  52    6:00   0.00   29.5    95    0.7   167     2.3   937.6    0.00 
  52    6:10   0.00   29.7    94    0.8    45     2.8   937.7    0.00 
  52    6:20   0.00   29.2    95    1.5    64     3.2   937.7    0.00 
  52    6:30   0.00   29.2    95    1.1   344     4.0   937.8    0.00 
  52    6:40   0.00   30.2    95    3.6   301     7.7   937.9    0.00 
  52    6:50   0.00   31.5    95    3.8   300     6.9   938.0    0.00 
  52    7:00   0.01   33.5    93    3.0   350     9.0   938.0    0.00 
  52    7:10   0.01   34.8    85    3.5   358    10.7   938.0    0.00 
  52    7:20   0.01   35.4    78    3.1   350     8.7   938.1    0.00 
  52    7:30   0.03   35.0    79    1.4   274     5.4   938.3    0.00 
  52    7:40   0.14   35.2    79    3.1   327    13.9   938.2    0.00 
  52    7:50   0.19   37.1    73    3.0   266     6.4   938.4    0.00 
  52    8:00   0.20   37.9    72    3.8   285    13.6   938.5    0.00 
  52    8:10   0.18   37.7    71    4.0   265     8.7   938.6    0.00 
  52    8:20   0.21   38.3    72    2.6   239     4.7   938.7    0.00 
  52    8:30   0.27   38.7    73    4.1   264     9.9   938.8    0.00 
  52    8:40   0.30   39.7    66    4.5   278     8.3   938.8    0.00 
  52    8:50   0.25   39.2    67    6.8   290    15.6   938.9    0.00 
  52    9:00   0.22   38.2    71    8.6   284    16.2   938.9    0.00 
  52    9:10   0.28   38.4    68    8.7   297    17.8   939.0    0.00 
  52    9:20   0.38   39.2    66    8.5   306    18.5   939.0    0.00 
  52    9:30   0.39   39.8    65    7.7   294    15.7   939.1    0.00 
  52    9:40   0.33   40.2    64    8.6   276    17.9   939.0    0.00 
  52    9:50   0.43   40.7    64   10.6   284    17.0   939.0    0.00 
  52   10:00   0.52   41.6    62   11.0   282    20.5   938.9    0.00 
  52   10:10   0.55   41.8    60    8.2   301    16.9   938.9    0.00 
  52   10:20   0.54   43.3    58    5.8   270    14.3   938.9    0.00 
  52   10:30   0.60   43.8    56    4.3    34    12.7   939.0    0.00 
  52   10:40   0.62   44.2    54    4.4   342    13.4   939.0    0.00 
  52   10:50   0.64   43.6    52    7.0   330    16.7   939.1    0.00 
  52   11:00   0.66   43.9    50    6.5   320    12.1   939.1    0.00 
  52   11:10   0.68   44.5    47    4.8   347    12.5   939.0    0.00 
  52   11:20   0.69   44.7    46    7.6   347    17.5   938.9    0.00 
  52   11:30   0.70   44.8    45    9.8   320    20.0   938.9    0.00 
  52   11:40   0.71   44.4    45   10.7   338    18.9   938.9    0.00 
  52   11:50   0.72   44.8    46    8.4   342    20.2   938.8    0.00 
  52   12:00   0.73   45.2    44   11.6   340    21.8   938.9    0.00 
  52   12:10   0.73   45.0    44   10.1     8    22.4   938.9    0.00 
  52   12:20   0.74   45.0    44    9.1     2    18.1   938.8    0.00 
  52   12:30   0.74   45.8    45   10.0   322    23.0   938.8    0.00 
  52   12:40   0.74   45.2    45   12.3   326    26.3   938.9    0.00 
  52   12:50   0.73   46.1    44    6.6   338    19.1   938.9    0.00 
  52   13:00   0.73   46.4    44    9.1   325    21.2   938.9    0.00 
  52   13:10   0.70   46.3    44    9.2   338    23.1   938.8    0.00 
  52   13:20   0.71   46.0    42    9.2   346    20.8   938.9    0.00 
  52   13:30   0.68   45.8    43    7.9   355    17.6   938.9    0.00 
  52   13:40   0.70   46.4    42   12.9   313    26.0   938.8    0.00 
  52   13:50   0.65   46.4    41    8.7   340    16.0   938.8    0.00 
  52   14:00   0.67   46.3    40    9.6     5    19.4   938.9    0.00 
  52   14:10   0.65   46.6    40   11.7   309    25.4   938.9    0.00 
  52   14:20   0.63   46.7    39   11.6   309    24.1   938.9    0.00 
  52   14:30   0.61   46.1    39   12.1   311    23.2   939.1    0.00 
  52   14:40   0.58   46.4    39   11.2   316    22.6   939.1    0.00 
  52   14:50   0.56   46.4    39   12.1   307    23.4   939.1    0.00 
  52   15:00   0.54   47.1    38    9.7   323    21.3   939.0    0.00 
  52   15:10   0.51   46.9    38   12.3   324    23.7   939.1    0.00 
  52   15:20   0.49   46.5    36   13.3   316    27.6   939.2    0.00 
  52   15:30   0.46   46.1    36   10.9   331    22.1   939.4    0.00 
  52   15:40   0.42   46.3    36    9.3   330    22.6   939.5    0.00 
  52   15:50   0.39   46.4    37    9.7   351    22.8   939.6    0.00 
  52   16:00   0.36   46.3    38    7.1   355    16.5   939.6    0.00 
  52   16:10   0.33   46.6    38    8.2   337    16.9   939.7    0.00 
  52   16:20   0.29   46.3    38    7.7   343    20.6   939.8    0.00 
  52   16:30   0.26   45.8    38   10.6   334    26.5   939.9    0.00 
  52   16:40   0.23   45.5    39    8.7   344    22.0   939.9    0.00 
  52   16:50   0.19   45.7    39    8.3   329    15.9   940.0    0.00 
  52   17:00   0.16   45.3    39    7.2   346    17.3   940.1    0.00 
  52   17:10   0.13   44.9    40    8.7   354    18.4   940.2    0.00 
  52   17:20   0.10   44.6    40    6.3   350    18.1   940.3    0.00 
  52   17:30   0.06   44.1    40    9.1     0    18.1   940.3    0.00 
  52   17:40   0.02   43.5    41    6.8     7    18.4   940.3    0.00 
  52   17:50   0.01   43.0    40    8.8    20    17.1   940.4    0.00 
  52   18:00   0.00   42.6    41    7.6    17    14.0   940.6    0.00 
  52   18:10   0.00   42.6    41    8.8    21    17.5   940.7    0.00 
  52   18:20   0.00   42.6    40   11.6    28    22.6   940.9    0.00 
  52   18:30   0.00   42.6    40    9.6    21    18.4   941.1    0.00 
  52   18:40   0.00   42.5    40    7.8    23    15.9   941.4    0.00 
  52   18:50   0.00   42.3    40    6.6    20    19.3   941.6    0.00 
  52   19:00   0.00   42.4    40    6.8    15    14.0   941.8    0.00 
  52   19:10   0.00   42.2    40    8.0    15    19.0   941.9    0.00 
  52   19:20   0.00   42.3    40    7.9    24    18.8   942.1    0.00 
  52   19:30   0.00   42.1    40    7.2    19    14.2   942.2    0.00 
  52   19:40   0.00   41.9    40    8.1    14    18.3   942.3    0.00 
  52   19:50   0.00   41.7    40    6.1    22    12.8   942.5    0.00 
  52   20:00   0.00   41.6    41    5.5    30    12.2   942.6    0.00 
  52   20:10   0.00   41.5    41    7.9    32    18.6   942.7    0.00 
  52   20:20   0.00   41.3    42    8.1    27    16.9   942.9    0.00 
  52   20:30   0.00   41.1    41    6.0    28    13.2   943.0    0.00 
  52   20:40   0.00   41.2    40    5.9    22    13.7   943.0    0.00 
  52   20:50   0.00   41.2    39    6.5    26    15.8   943.2    0.00 
  52   21:00   0.00   41.2    39    7.6    23    18.6   943.2    0.00 
  52   21:10   0.00   40.9    40    8.2    29    18.3   943.3    0.00 
  52   21:20   0.00   41.0    40    9.9    35    19.4   943.4    0.00 
  52   21:30   0.00   40.9    40    9.5    32    17.7   943.5    0.00 
  52   21:40   0.00   41.2    38   11.5    32    22.3   943.5    0.00 
  52   21:50   0.00   41.3    37    9.0    33    18.8   943.5    0.00 
  52   22:00   0.00   41.2    36   10.0    31    23.7   943.7    0.00 
  52   22:10   0.00   41.2    36    8.8    22    15.9   943.8    0.00 
  52   22:20   0.00   41.2    35    6.6    20    15.3   944.0    0.00 
  52   22:30   0.00   40.9    36    8.2    12    16.4   944.2    0.00 
  52   22:40   0.00   40.4    38    6.3    23    13.9   944.4    0.00 
  52   22:50   0.00   40.3    37    7.5    22    13.9   944.5    0.00 
  52   23:00   0.00   40.2    37    7.1     9    14.2   944.6    0.00 
  52   23:10   0.00   40.2    37    6.1    12    13.2   944.7    0.00 
  52   23:20   0.00   40.2    36    7.2    26    15.6   944.8    0.00 
  52   23:30   0.00   40.3    36   10.1    31    17.7   944.8    0.00 
  52   23:40   0.00   40.0    36   10.2    37    19.9   944.8    0.00 
  52   23:50   0.00   39.6    38    8.5    41    16.2   944.9    0.00 
  53    0:00   0.00   39.4    38    7.6    34    18.1   945.0    0.00 
  53    0:10   0.00   39.0    39    7.2    35    15.9   945.1    0.00 
  53    0:20   0.00   39.0    39    9.1    41    16.1   945.3    0.00 
  53    0:30   0.00   38.7    40    8.4    38    15.3   945.5    0.00 
  53    0:40   0.00   38.6    41   11.8    45    25.2   945.6    0.00 
  53    0:50   0.00   38.3    42   11.8    48    20.8   945.6    0.00 
  53    1:00   0.00   38.0    42   11.5    51    24.7   945.6    0.00 
  53    1:10   0.00   37.8    43   10.9    50    20.5   945.7    0.00 
  53    1:20   0.00   37.6    43   11.2    49    22.3   945.8    0.00 
  53    1:30   0.00   37.8    42   15.0    44    25.4   945.8    0.00 
  53    1:40   0.00   37.7    42   11.6    45    21.6   945.9    0.00 
  53    1:50   0.00   37.6    41   12.8    48    22.9   945.9    0.00 
  53    2:00   0.00   37.7    41   11.0    51    20.0   946.0    0.00 
  53    2:10   0.00   37.6    40   12.1    50    21.7   946.0    0.00 
  53    2:20   0.00   37.6    40   12.6    50    21.9   946.1    0.00 
  53    2:30   0.00   37.6    40   12.8    54    23.2   946.1    0.00 
  53    2:40   0.00   37.7    39   14.6    56    23.4   946.1    0.00 
  53    2:50   0.00   37.8    39   14.3    56    24.7   946.0    0.00 
  53    3:00   0.00   37.7    39   13.3    52    24.9   946.1    0.00 
  53    3:10   0.00   38.1    38   10.1    46    19.0   946.3    0.00 
  53    3:20   0.00   37.9    38    9.5    28    19.9   946.6    0.00 
  53    3:30   0.00   37.3    40    6.1   284    11.6   946.7    0.00 
  53    3:40   0.00   36.9    41    7.8   309    13.6   946.8    0.00 
  53    3:50   0.00   35.9    44    4.9   305    10.6   947.0    0.00 
  53    4:00   0.00   33.9    48    1.2   359     3.4   947.2    0.00 
  53    4:10   0.00   32.3    52    1.4    84     3.7   947.2    0.00 
  53    4:20   0.00   30.4    57    1.2   124     2.8   947.3    0.00 
  53    4:30   0.00   30.5    57    2.1    25     3.7   947.3    0.00 
  53    4:40   0.00   30.0    57    2.2   311     6.4   947.4    0.00 
  53    4:50   0.00   29.9    58    4.0   297     6.2   947.5    0.00 
  53    5:00   0.00   29.2    60    0.8     1     2.3   947.7    0.00 
  53    5:10   0.00   29.7    57    1.5   315     4.5   947.8    0.00 
  53    5:20   0.00   29.5    59    0.6     5     1.9   947.9    0.00 
  53    5:30   0.00   28.0    63    0.3   348     1.9   948.0    0.00 
  53    5:40   0.00   27.5    66    1.1    32     3.3   947.9    0.00 
  53    5:50   0.00   27.1    67    2.3   318     4.4   948.0    0.00 

Return to Blue Oak Ranch Reserve graphs page.


Western Regional Climate Center,wrcc@dri.edu